sensor_id;sensor_type;location;lat;lon;timestamp;P1;durP1;ratioP1;P2;durP2;ratioP2
3095;SDS011;1558;42.700;23.360;2023-09-19T00:02:02;7.03;;;5.93;;
3095;SDS011;1558;42.700;23.360;2023-09-19T00:04:31;8.27;;;5.90;;
3095;SDS011;1558;42.700;23.360;2023-09-19T00:06:59;8.40;;;5.97;;
3095;SDS011;1558;42.700;23.360;2023-09-19T00:09:30;6.63;;;5.93;;
3095;SDS011;1558;42.700;23.360;2023-09-19T00:12:03;7.90;;;6.40;;
3095;SDS011;1558;42.700;23.360;2023-09-19T00:14:34;7.17;;;6.47;;
3095;SDS011;1558;42.700;23.360;2023-09-19T00:17:02;6.53;;;5.93;;
3095;SDS011;1558;42.700;23.360;2023-09-19T00:19:35;9.80;;;6.50;;
3095;SDS011;1558;42.700;23.360;2023-09-19T00:22:04;7.23;;;6.40;;
3095;SDS011;1558;42.700;23.360;2023-09-19T00:24:32;6.53;;;5.90;;
3095;SDS011;1558;42.700;23.360;2023-09-19T00:27:00;6.53;;;5.87;;
3095;SDS011;1558;42.700;23.360;2023-09-19T00:29:28;7.73;;;6.40;;
3095;SDS011;1558;42.700;23.360;2023-09-19T00:31:59;6.90;;;6.23;;
3095;SDS011;1558;42.700;23.360;2023-09-19T00:34:30;6.90;;;6.10;;
3095;SDS011;1558;42.700;23.360;2023-09-19T00:37:00;7.77;;;5.87;;
3095;SDS011;1558;42.700;23.360;2023-09-19T00:39:30;7.73;;;6.93;;
3095;SDS011;1558;42.700;23.360;2023-09-19T00:41:58;6.77;;;6.17;;
3095;SDS011;1558;42.700;23.360;2023-09-19T00:44:31;7.20;;;6.60;;
3095;SDS011;1558;42.700;23.360;2023-09-19T00:47:03;7.33;;;6.73;;
3095;SDS011;1558;42.700;23.360;2023-09-19T00:49:32;6.70;;;6.10;;
3095;SDS011;1558;42.700;23.360;2023-09-19T00:52:00;6.80;;;6.20;;
3095;SDS011;1558;42.700;23.360;2023-09-19T00:54:31;7.90;;;6.53;;
3095;SDS011;1558;42.700;23.360;2023-09-19T00:57:00;6.87;;;5.70;;
3095;SDS011;1558;42.700;23.360;2023-09-19T00:59:28;8.40;;;6.87;;
3095;SDS011;1558;42.700;23.360;2023-09-19T01:02:00;7.00;;;6.40;;
3095;SDS011;1558;42.700;23.360;2023-09-19T01:04:30;7.17;;;6.47;;
3095;SDS011;1558;42.700;23.360;2023-09-19T01:07:00;7.50;;;6.90;;
3095;SDS011;1558;42.700;23.360;2023-09-19T01:09:28;7.00;;;6.40;;
3095;SDS011;1558;42.700;23.360;2023-09-19T01:11:58;7.83;;;6.97;;
3095;SDS011;1558;42.700;23.360;2023-09-19T01:14:30;7.83;;;6.70;;
3095;SDS011;1558;42.700;23.360;2023-09-19T01:17:08;7.57;;;6.60;;
3095;SDS011;1558;42.700;23.360;2023-09-19T01:22:50;7.67;;;6.87;;
3095;SDS011;1558;42.700;23.360;2023-09-19T01:28:39;8.70;;;7.73;;
3095;SDS011;1558;42.700;23.360;2023-09-19T01:31:22;8.00;;;7.20;;
3095;SDS011;1558;42.700;23.360;2023-09-19T01:33:56;9.03;;;7.13;;
3095;SDS011;1558;42.700;23.360;2023-09-19T01:36:27;9.03;;;7.10;;
3095;SDS011;1558;42.700;23.360;2023-09-19T01:38:57;7.77;;;6.97;;
3095;SDS011;1558;42.700;23.360;2023-09-19T01:41:30;7.97;;;7.00;;
3095;SDS011;1558;42.700;23.360;2023-09-19T01:44:06;9.23;;;6.80;;
3095;SDS011;1558;42.700;23.360;2023-09-19T01:46:41;8.30;;;7.50;;
3095;SDS011;1558;42.700;23.360;2023-09-19T01:49:15;8.00;;;7.20;;
3095;SDS011;1558;42.700;23.360;2023-09-19T01:51:53;8.47;;;7.67;;
3095;SDS011;1558;42.700;23.360;2023-09-19T01:54:30;8.70;;;7.97;;
3095;SDS011;1558;42.700;23.360;2023-09-19T01:57:02;9.60;;;8.23;;
3095;SDS011;1558;42.700;23.360;2023-09-19T01:59:47;9.20;;;8.40;;
3095;SDS011;1558;42.700;23.360;2023-09-19T02:02:21;9.50;;;8.60;;
3095;SDS011;1558;42.700;23.360;2023-09-19T02:04:50;10.10;;;8.20;;
3095;SDS011;1558;42.700;23.360;2023-09-19T02:07:20;9.10;;;8.27;;
3095;SDS011;1558;42.700;23.360;2023-09-19T02:09:49;9.77;;;8.77;;
3095;SDS011;1558;42.700;23.360;2023-09-19T02:12:17;9.60;;;8.50;;
3095;SDS011;1558;42.700;23.360;2023-09-19T02:14:45;9.00;;;8.30;;
3095;SDS011;1558;42.700;23.360;2023-09-19T02:17:13;11.70;;;9.63;;
3095;SDS011;1558;42.700;23.360;2023-09-19T02:19:44;10.03;;;9.00;;
3095;SDS011;1558;42.700;23.360;2023-09-19T02:22:14;9.63;;;8.73;;
3095;SDS011;1558;42.700;23.360;2023-09-19T02:24:43;8.80;;;7.90;;
3095;SDS011;1558;42.700;23.360;2023-09-19T02:27:12;9.80;;;8.90;;
3095;SDS011;1558;42.700;23.360;2023-09-19T02:29:42;9.30;;;8.40;;
3095;SDS011;1558;42.700;23.360;2023-09-19T02:32:11;9.87;;;8.53;;
3095;SDS011;1558;42.700;23.360;2023-09-19T02:34:39;9.97;;;9.07;;
3095;SDS011;1558;42.700;23.360;2023-09-19T02:37:10;9.73;;;8.73;;
3095;SDS011;1558;42.700;23.360;2023-09-19T02:39:39;10.53;;;9.53;;
3095;SDS011;1558;42.700;23.360;2023-09-19T02:42:08;9.77;;;8.47;;
3095;SDS011;1558;42.700;23.360;2023-09-19T02:44:36;9.33;;;8.53;;
3095;SDS011;1558;42.700;23.360;2023-09-19T02:47:04;9.50;;;8.70;;
3095;SDS011;1558;42.700;23.360;2023-09-19T02:49:33;9.27;;;8.37;;
3095;SDS011;1558;42.700;23.360;2023-09-19T02:52:03;10.03;;;9.10;;
3095;SDS011;1558;42.700;23.360;2023-09-19T02:54:35;10.57;;;9.53;;
3095;SDS011;1558;42.700;23.360;2023-09-19T02:57:04;10.50;;;9.50;;
3095;SDS011;1558;42.700;23.360;2023-09-19T02:59:33;10.00;;;9.10;;
3095;SDS011;1558;42.700;23.360;2023-09-19T03:02:04;9.37;;;8.50;;
3095;SDS011;1558;42.700;23.360;2023-09-19T03:04:32;10.70;;;9.60;;
3095;SDS011;1558;42.700;23.360;2023-09-19T03:07:02;9.47;;;8.60;;
3095;SDS011;1558;42.700;23.360;2023-09-19T03:09:31;10.53;;;9.50;;
3095;SDS011;1558;42.700;23.360;2023-09-19T03:12:00;9.67;;;8.77;;
3095;SDS011;1558;42.700;23.360;2023-09-19T03:14:30;10.90;;;9.40;;
3095;SDS011;1558;42.700;23.360;2023-09-19T03:17:02;12.07;;;9.27;;
3095;SDS011;1558;42.700;23.360;2023-09-19T03:19:31;9.63;;;8.70;;
3095;SDS011;1558;42.700;23.360;2023-09-19T03:22:00;16.10;;;8.80;;
3095;SDS011;1558;42.700;23.360;2023-09-19T03:24:30;9.57;;;8.67;;
3095;SDS011;1558;42.700;23.360;2023-09-19T03:27:01;9.80;;;8.90;;
3095;SDS011;1558;42.700;23.360;2023-09-19T03:29:30;9.70;;;8.70;;
3095;SDS011;1558;42.700;23.360;2023-09-19T03:32:00;9.67;;;8.77;;
3095;SDS011;1558;42.700;23.360;2023-09-19T03:34:30;9.50;;;8.53;;
3095;SDS011;1558;42.700;23.360;2023-09-19T03:36:58;10.23;;;9.13;;
3095;SDS011;1558;42.700;23.360;2023-09-19T03:39:26;9.63;;;8.83;;
3095;SDS011;1558;42.700;23.360;2023-09-19T03:41:54;10.57;;;9.50;;
3095;SDS011;1558;42.700;23.360;2023-09-19T03:44:24;10.33;;;9.30;;
3095;SDS011;1558;42.700;23.360;2023-09-19T03:46:52;9.43;;;8.43;;
3095;SDS011;1558;42.700;23.360;2023-09-19T03:49:22;11.93;;;9.57;;
3095;SDS011;1558;42.700;23.360;2023-09-19T03:51:51;11.93;;;9.20;;
3095;SDS011;1558;42.700;23.360;2023-09-19T03:54:19;10.30;;;9.20;;
3095;SDS011;1558;42.700;23.360;2023-09-19T03:56:47;9.53;;;8.63;;
3095;SDS011;1558;42.700;23.360;2023-09-19T03:59:15;9.77;;;8.57;;
3095;SDS011;1558;42.700;23.360;2023-09-19T04:01:46;9.87;;;8.97;;
3095;SDS011;1558;42.700;23.360;2023-09-19T04:04:16;9.87;;;8.37;;
3095;SDS011;1558;42.700;23.360;2023-09-19T04:06:45;17.43;;;9.80;;
3095;SDS011;1558;42.700;23.360;2023-09-19T04:09:13;12.30;;;9.10;;
3095;SDS011;1558;42.700;23.360;2023-09-19T04:11:41;9.77;;;8.80;;
3095;SDS011;1558;42.700;23.360;2023-09-19T04:14:09;11.53;;;9.93;;
3095;SDS011;1558;42.700;23.360;2023-09-19T04:16:37;10.07;;;9.07;;
3095;SDS011;1558;42.700;23.360;2023-09-19T04:19:07;10.27;;;9.00;;
3095;SDS011;1558;42.700;23.360;2023-09-19T04:21:36;11.53;;;9.43;;
3095;SDS011;1558;42.700;23.360;2023-09-19T04:24:04;9.50;;;8.60;;
3095;SDS011;1558;42.700;23.360;2023-09-19T04:26:33;11.30;;;8.73;;
3095;SDS011;1558;42.700;23.360;2023-09-19T04:29:01;8.93;;;7.97;;
3095;SDS011;1558;42.700;23.360;2023-09-19T04:31:30;12.93;;;10.93;;
3095;SDS011;1558;42.700;23.360;2023-09-19T04:33:58;17.50;;;10.10;;
3095;SDS011;1558;42.700;23.360;2023-09-19T04:36:31;11.60;;;9.20;;
3095;SDS011;1558;42.700;23.360;2023-09-19T04:39:01;9.07;;;8.20;;
3095;SDS011;1558;42.700;23.360;2023-09-19T04:41:33;9.50;;;8.60;;
3095;SDS011;1558;42.700;23.360;2023-09-19T04:44:03;13.53;;;9.00;;
3095;SDS011;1558;42.700;23.360;2023-09-19T04:46:32;10.10;;;7.37;;
3095;SDS011;1558;42.700;23.360;2023-09-19T04:49:00;8.67;;;7.87;;
3095;SDS011;1558;42.700;23.360;2023-09-19T04:51:28;9.00;;;8.07;;
3095;SDS011;1558;42.700;23.360;2023-09-19T04:54:00;10.00;;;7.70;;
3095;SDS011;1558;42.700;23.360;2023-09-19T04:56:29;9.87;;;8.80;;
3095;SDS011;1558;42.700;23.360;2023-09-19T04:58:58;10.07;;;8.47;;
3095;SDS011;1558;42.700;23.360;2023-09-19T05:01:26;9.70;;;8.20;;
3095;SDS011;1558;42.700;23.360;2023-09-19T05:03:54;11.93;;;8.53;;
3095;SDS011;1558;42.700;23.360;2023-09-19T05:06:23;14.70;;;8.70;;
3095;SDS011;1558;42.700;23.360;2023-09-19T05:08:54;8.60;;;7.40;;
3095;SDS011;1558;42.700;23.360;2023-09-19T05:11:22;8.03;;;7.20;;
3095;SDS011;1558;42.700;23.360;2023-09-19T05:13:50;8.00;;;7.20;;
3095;SDS011;1558;42.700;23.360;2023-09-19T05:16:19;11.13;;;6.57;;
3095;SDS011;1558;42.700;23.360;2023-09-19T05:18:48;7.77;;;6.77;;
3095;SDS011;1558;42.700;23.360;2023-09-19T05:21:17;9.30;;;7.97;;
3095;SDS011;1558;42.700;23.360;2023-09-19T05:23:45;8.43;;;6.73;;
3095;SDS011;1558;42.700;23.360;2023-09-19T05:26:15;6.33;;;5.73;;
3095;SDS011;1558;42.700;23.360;2023-09-19T05:28:44;7.83;;;5.90;;
3095;SDS011;1558;42.700;23.360;2023-09-19T05:31:14;6.95;;;6.25;;
3095;SDS011;1558;42.700;23.360;2023-09-19T05:33:43;8.00;;;7.20;;
3095;SDS011;1558;42.700;23.360;2023-09-19T05:36:11;6.72;;;5.75;;
3095;SDS011;1558;42.700;23.360;2023-09-19T05:38:39;6.40;;;5.90;;
3095;SDS011;1558;42.700;23.360;2023-09-19T05:41:08;6.43;;;5.68;;
3095;SDS011;1558;42.700;23.360;2023-09-19T05:43:42;6.60;;;5.57;;
3095;SDS011;1558;42.700;23.360;2023-09-19T05:46:10;6.45;;;5.22;;
3095;SDS011;1558;42.700;23.360;2023-09-19T05:48:38;6.35;;;5.50;;
3095;SDS011;1558;42.700;23.360;2023-09-19T05:51:08;6.20;;;5.70;;
3095;SDS011;1558;42.700;23.360;2023-09-19T05:53:36;7.32;;;6.05;;
3095;SDS011;1558;42.700;23.360;2023-09-19T05:56:05;5.72;;;5.03;;
3095;SDS011;1558;42.700;23.360;2023-09-19T05:58:33;6.63;;;5.60;;
3095;SDS011;1558;42.700;23.360;2023-09-19T06:01:03;6.25;;;5.32;;
3095;SDS011;1558;42.700;23.360;2023-09-19T06:03:33;8.88;;;5.15;;
3095;SDS011;1558;42.700;23.360;2023-09-19T06:06:02;6.07;;;5.45;;
3095;SDS011;1558;42.700;23.360;2023-09-19T06:08:30;5.95;;;5.45;;
3095;SDS011;1558;42.700;23.360;2023-09-19T06:10:59;7.85;;;5.68;;
3095;SDS011;1558;42.700;23.360;2023-09-19T06:13:29;6.75;;;6.15;;
3095;SDS011;1558;42.700;23.360;2023-09-19T06:16:00;6.43;;;5.85;;
3095;SDS011;1558;42.700;23.360;2023-09-19T06:18:32;6.57;;;5.38;;
3095;SDS011;1558;42.700;23.360;2023-09-19T06:21:01;6.68;;;6.03;;
3095;SDS011;1558;42.700;23.360;2023-09-19T06:23:34;8.15;;;6.10;;
3095;SDS011;1558;42.700;23.360;2023-09-19T06:26:02;8.23;;;5.70;;
3095;SDS011;1558;42.700;23.360;2023-09-19T06:28:33;10.55;;;5.63;;
3095;SDS011;1558;42.700;23.360;2023-09-19T06:31:02;6.63;;;5.25;;
3095;SDS011;1558;42.700;23.360;2023-09-19T06:33:37;6.35;;;5.30;;
3095;SDS011;1558;42.700;23.360;2023-09-19T06:36:06;6.63;;;4.85;;
3095;SDS011;1558;42.700;23.360;2023-09-19T06:38:35;5.38;;;4.88;;
3095;SDS011;1558;42.700;23.360;2023-09-19T06:41:05;5.85;;;5.15;;
3095;SDS011;1558;42.700;23.360;2023-09-19T06:43:34;5.47;;;4.97;;
3095;SDS011;1558;42.700;23.360;2023-09-19T06:46:03;6.30;;;5.05;;
3095;SDS011;1558;42.700;23.360;2023-09-19T06:48:33;5.72;;;5.22;;
3095;SDS011;1558;42.700;23.360;2023-09-19T06:51:03;7.85;;;5.47;;
3095;SDS011;1558;42.700;23.360;2023-09-19T06:53:31;8.50;;;6.25;;
3095;SDS011;1558;42.700;23.360;2023-09-19T06:56:01;6.78;;;5.93;;
3095;SDS011;1558;42.700;23.360;2023-09-19T06:58:29;7.22;;;5.82;;
3095;SDS011;1558;42.700;23.360;2023-09-19T07:00:58;6.35;;;5.32;;
3095;SDS011;1558;42.700;23.360;2023-09-19T07:03:26;5.80;;;4.75;;
3095;SDS011;1558;42.700;23.360;2023-09-19T07:05:55;6.47;;;4.80;;
3095;SDS011;1558;42.700;23.360;2023-09-19T07:08:26;5.25;;;4.75;;
3095;SDS011;1558;42.700;23.360;2023-09-19T07:10:56;6.57;;;4.80;;
3095;SDS011;1558;42.700;23.360;2023-09-19T07:13:24;5.25;;;4.75;;
3095;SDS011;1558;42.700;23.360;2023-09-19T07:15:52;5.15;;;4.72;;
3095;SDS011;1558;42.700;23.360;2023-09-19T07:18:21;7.75;;;4.82;;
3095;SDS011;1558;42.700;23.360;2023-09-19T07:20:49;5.32;;;4.65;;
3095;SDS011;1558;42.700;23.360;2023-09-19T07:23:17;8.75;;;6.00;;
3095;SDS011;1558;42.700;23.360;2023-09-19T07:25:49;9.70;;;6.55;;
3095;SDS011;1558;42.700;23.360;2023-09-19T07:28:18;8.43;;;7.47;;
3095;SDS011;1558;42.700;23.360;2023-09-19T07:30:46;6.57;;;4.80;;
3095;SDS011;1558;42.700;23.360;2023-09-19T07:33:14;5.50;;;4.82;;
3095;SDS011;1558;42.700;23.360;2023-09-19T07:35:44;5.43;;;5.00;;
3095;SDS011;1558;42.700;23.360;2023-09-19T07:38:13;5.65;;;5.15;;
3095;SDS011;1558;42.700;23.360;2023-09-19T07:40:42;6.70;;;5.82;;
3095;SDS011;1558;42.700;23.360;2023-09-19T07:43:12;7.75;;;5.22;;
3095;SDS011;1558;42.700;23.360;2023-09-19T07:45:40;6.80;;;5.05;;
3095;SDS011;1558;42.700;23.360;2023-09-19T07:48:08;5.32;;;4.82;;
3095;SDS011;1558;42.700;23.360;2023-09-19T07:50:41;8.43;;;5.65;;
3095;SDS011;1558;42.700;23.360;2023-09-19T07:53:11;6.85;;;5.10;;
3095;SDS011;1558;42.700;23.360;2023-09-19T07:55:40;5.45;;;5.03;;
3095;SDS011;1558;42.700;23.360;2023-09-19T07:58:11;6.60;;;5.18;;
3095;SDS011;1558;42.700;23.360;2023-09-19T08:00:40;6.50;;;5.90;;
3095;SDS011;1558;42.700;23.360;2023-09-19T08:03:08;6.85;;;5.30;;
3095;SDS011;1558;42.700;23.360;2023-09-19T08:05:43;6.28;;;5.68;;
3095;SDS011;1558;42.700;23.360;2023-09-19T08:08:12;7.18;;;6.38;;
3095;SDS011;1558;42.700;23.360;2023-09-19T08:10:42;7.40;;;6.68;;
3095;SDS011;1558;42.700;23.360;2023-09-19T08:13:14;7.10;;;6.22;;
3095;SDS011;1558;42.700;23.360;2023-09-19T08:15:45;6.85;;;6.15;;
3095;SDS011;1558;42.700;23.360;2023-09-19T08:18:14;5.90;;;5.40;;
3095;SDS011;1558;42.700;23.360;2023-09-19T08:20:48;7.30;;;5.03;;
3095;SDS011;1558;42.700;23.360;2023-09-19T08:23:17;6.45;;;5.70;;
3095;SDS011;1558;42.700;23.360;2023-09-19T08:25:46;9.90;;;6.40;;
3095;SDS011;1558;42.700;23.360;2023-09-19T08:28:16;8.63;;;6.35;;
3095;SDS011;1558;42.700;23.360;2023-09-19T08:30:51;6.88;;;5.47;;
3095;SDS011;1558;42.700;23.360;2023-09-19T08:33:20;6.13;;;5.20;;
3095;SDS011;1558;42.700;23.360;2023-09-19T08:35:48;6.57;;;5.47;;
3095;SDS011;1558;42.700;23.360;2023-09-19T08:38:16;5.57;;;4.70;;
3095;SDS011;1558;42.700;23.360;2023-09-19T08:40:44;9.68;;;5.40;;
3095;SDS011;1558;42.700;23.360;2023-09-19T08:43:12;5.40;;;4.90;;
3095;SDS011;1558;42.700;23.360;2023-09-19T08:45:42;6.07;;;5.45;;
3095;SDS011;1558;42.700;23.360;2023-09-19T08:48:16;8.27;;;5.30;;
3095;SDS011;1558;42.700;23.360;2023-09-19T08:50:51;6.85;;;5.10;;
3095;SDS011;1558;42.700;23.360;2023-09-19T08:53:26;6.15;;;5.07;;
3095;SDS011;1558;42.700;23.360;2023-09-19T08:55:59;5.70;;;5.10;;
3095;SDS011;1558;42.700;23.360;2023-09-19T08:58:32;6.65;;;5.47;;
3095;SDS011;1558;42.700;23.360;2023-09-19T09:01:08;7.85;;;5.70;;
3095;SDS011;1558;42.700;23.360;2023-09-19T09:03:39;6.57;;;5.85;;
3095;SDS011;1558;42.700;23.360;2023-09-19T09:06:15;6.38;;;5.13;;
3095;SDS011;1558;42.700;23.360;2023-09-19T09:08:44;6.03;;;5.40;;
3095;SDS011;1558;42.700;23.360;2023-09-19T09:11:14;5.47;;;5.07;;
3095;SDS011;1558;42.700;23.360;2023-09-19T09:13:44;7.93;;;5.80;;
3095;SDS011;1558;42.700;23.360;2023-09-19T09:16:14;8.00;;;6.07;;
3095;SDS011;1558;42.700;23.360;2023-09-19T09:18:46;6.30;;;5.47;;
3095;SDS011;1558;42.700;23.360;2023-09-19T09:21:19;7.18;;;6.47;;
3095;SDS011;1558;42.700;23.360;2023-09-19T09:23:48;6.63;;;6.03;;
3095;SDS011;1558;42.700;23.360;2023-09-19T09:26:23;8.75;;;7.90;;
3095;SDS011;1558;42.700;23.360;2023-09-19T09:29:09;6.15;;;5.55;;
3095;SDS011;1558;42.700;23.360;2023-09-19T09:31:39;8.18;;;5.50;;
3095;SDS011;1558;42.700;23.360;2023-09-19T09:34:08;6.25;;;5.65;;
3095;SDS011;1558;42.700;23.360;2023-09-19T09:36:40;7.03;;;4.95;;
3095;SDS011;1558;42.700;23.360;2023-09-19T09:39:08;7.45;;;5.03;;
3095;SDS011;1558;42.700;23.360;2023-09-19T09:41:45;7.63;;;5.18;;
3095;SDS011;1558;42.700;23.360;2023-09-19T09:44:15;5.68;;;5.20;;
3095;SDS011;1558;42.700;23.360;2023-09-19T09:46:47;10.68;;;8.82;;
3095;SDS011;1558;42.700;23.360;2023-09-19T09:49:42;8.80;;;5.53;;
3095;SDS011;1558;42.700;23.360;2023-09-19T09:52:21;6.10;;;5.50;;
3095;SDS011;1558;42.700;23.360;2023-09-19T09:55:00;6.82;;;5.47;;
3095;SDS011;1558;42.700;23.360;2023-09-19T09:57:32;6.78;;;5.25;;
3095;SDS011;1558;42.700;23.360;2023-09-19T10:00:02;5.65;;;5.00;;
3095;SDS011;1558;42.700;23.360;2023-09-19T10:02:48;5.20;;;4.78;;
3095;SDS011;1558;42.700;23.360;2023-09-19T10:05:17;6.10;;;5.60;;
3095;SDS011;1558;42.700;23.360;2023-09-19T10:07:57;6.13;;;5.55;;
3095;SDS011;1558;42.700;23.360;2023-09-19T10:10:39;6.03;;;5.40;;
3095;SDS011;1558;42.700;23.360;2023-09-19T10:13:21;6.93;;;5.38;;
3095;SDS011;1558;42.700;23.360;2023-09-19T10:15:53;5.63;;;5.07;;
3095;SDS011;1558;42.700;23.360;2023-09-19T10:18:24;6.10;;;5.50;;
3095;SDS011;1558;42.700;23.360;2023-09-19T10:20:54;5.45;;;4.93;;
3095;SDS011;1558;42.700;23.360;2023-09-19T10:23:24;8.82;;;6.25;;
3095;SDS011;1558;42.700;23.360;2023-09-19T10:25:56;7.18;;;5.63;;
3095;SDS011;1558;42.700;23.360;2023-09-19T10:28:28;6.18;;;5.68;;
3095;SDS011;1558;42.700;23.360;2023-09-19T10:30:58;9.65;;;6.28;;
3095;SDS011;1558;42.700;23.360;2023-09-19T10:33:29;5.80;;;5.20;;
3095;SDS011;1558;42.700;23.360;2023-09-19T10:36:04;5.45;;;5.03;;
3095;SDS011;1558;42.700;23.360;2023-09-19T10:38:32;6.60;;;5.32;;
3095;SDS011;1558;42.700;23.360;2023-09-19T10:41:02;7.28;;;5.18;;
3095;SDS011;1558;42.700;23.360;2023-09-19T10:43:33;6.32;;;5.45;;
3095;SDS011;1558;42.700;23.360;2023-09-19T10:46:03;6.18;;;5.60;;
3095;SDS011;1558;42.700;23.360;2023-09-19T10:48:39;6.43;;;5.82;;
3095;SDS011;1558;42.700;23.360;2023-09-19T10:51:11;7.55;;;5.90;;
3095;SDS011;1558;42.700;23.360;2023-09-19T10:53:44;5.90;;;5.30;;
3095;SDS011;1558;42.700;23.360;2023-09-19T10:56:19;6.07;;;5.40;;
3095;SDS011;1558;42.700;23.360;2023-09-19T10:59:05;6.95;;;6.35;;
3095;SDS011;1558;42.700;23.360;2023-09-19T11:01:42;6.97;;;5.55;;
3095;SDS011;1558;42.700;23.360;2023-09-19T11:04:22;7.32;;;6.68;;
3095;SDS011;1558;42.700;23.360;2023-09-19T11:07:01;6.82;;;6.20;;
3095;SDS011;1558;42.700;23.360;2023-09-19T11:09:44;7.28;;;6.00;;
3095;SDS011;1558;42.700;23.360;2023-09-19T11:12:12;7.07;;;5.43;;
3095;SDS011;1558;42.700;23.360;2023-09-19T11:16:02;6.43;;;5.93;;
3095;SDS011;1558;42.700;23.360;2023-09-19T11:24:28;9.30;;;7.00;;
3095;SDS011;1558;42.700;23.360;2023-09-19T11:27:12;8.20;;;6.45;;
3095;SDS011;1558;42.700;23.360;2023-09-19T11:29:44;7.35;;;6.68;;
3095;SDS011;1558;42.700;23.360;2023-09-19T11:32:13;6.97;;;6.28;;
3095;SDS011;1558;42.700;23.360;2023-09-19T11:34:44;9.05;;;6.32;;
3095;SDS011;1558;42.700;23.360;2023-09-19T11:40:38;6.70;;;6.00;;
3095;SDS011;1558;42.700;23.360;2023-09-19T11:46:08;6.60;;;6.00;;
3095;SDS011;1558;42.700;23.360;2023-09-19T11:48:38;6.53;;;5.93;;
3095;SDS011;1558;42.700;23.360;2023-09-19T11:51:18;6.55;;;5.93;;
3095;SDS011;1558;42.700;23.360;2023-09-19T11:53:49;5.95;;;5.45;;
3095;SDS011;1558;42.700;23.360;2023-09-19T11:56:20;6.63;;;6.00;;
3095;SDS011;1558;42.700;23.360;2023-09-19T11:58:51;6.65;;;5.57;;
3095;SDS011;1558;42.700;23.360;2023-09-19T12:01:23;6.32;;;5.82;;
3095;SDS011;1558;42.700;23.360;2023-09-19T12:03:57;6.75;;;6.25;;
3095;SDS011;1558;42.700;23.360;2023-09-19T12:06:26;6.03;;;5.53;;
3095;SDS011;1558;42.700;23.360;2023-09-19T12:08:56;6.90;;;5.93;;
3095;SDS011;1558;42.700;23.360;2023-09-19T12:11:29;6.88;;;6.15;;
3095;SDS011;1558;42.700;23.360;2023-09-19T12:14:01;6.45;;;5.85;;
3095;SDS011;1558;42.700;23.360;2023-09-19T12:16:32;6.30;;;5.75;;
3095;SDS011;1558;42.700;23.360;2023-09-19T12:21:59;6.40;;;5.90;;
3095;SDS011;1558;42.700;23.360;2023-09-19T12:24:31;6.63;;;6.03;;
3095;SDS011;1558;42.700;23.360;2023-09-19T12:27:01;6.00;;;5.60;;
3095;SDS011;1558;42.700;23.360;2023-09-19T12:29:32;7.05;;;6.35;;
3095;SDS011;1558;42.700;23.360;2023-09-19T12:32:10;7.55;;;6.10;;
3095;SDS011;1558;42.700;23.360;2023-09-19T12:34:39;6.57;;;6.07;;
3095;SDS011;1558;42.700;23.360;2023-09-19T12:37:10;6.43;;;5.82;;
3095;SDS011;1558;42.700;23.360;2023-09-19T12:39:40;7.22;;;6.13;;
3095;SDS011;1558;42.700;23.360;2023-09-19T12:42:10;6.95;;;6.25;;
3095;SDS011;1558;42.700;23.360;2023-09-19T12:44:42;10.40;;;7.35;;
3095;SDS011;1558;42.700;23.360;2023-09-19T12:47:11;6.55;;;6.03;;
3095;SDS011;1558;42.700;23.360;2023-09-19T12:50:05;7.07;;;6.43;;
3095;SDS011;1558;42.700;23.360;2023-09-19T12:52:39;8.07;;;6.50;;
3095;SDS011;1558;42.700;23.360;2023-09-19T12:55:19;7.10;;;6.40;;
3095;SDS011;1558;42.700;23.360;2023-09-19T13:00:39;7.03;;;6.00;;
3095;SDS011;1558;42.700;23.360;2023-09-19T13:03:13;8.15;;;6.15;;
3095;SDS011;1558;42.700;23.360;2023-09-19T13:05:49;11.23;;;8.77;;
3095;SDS011;1558;42.700;23.360;2023-09-19T13:08:19;8.75;;;6.85;;
3095;SDS011;1558;42.700;23.360;2023-09-19T13:11:02;6.88;;;6.28;;
3095;SDS011;1558;42.700;23.360;2023-09-19T13:13:35;7.05;;;6.32;;
3095;SDS011;1558;42.700;23.360;2023-09-19T13:16:03;7.75;;;6.60;;
3095;SDS011;1558;42.700;23.360;2023-09-19T13:18:47;6.93;;;6.32;;
3095;SDS011;1558;42.700;23.360;2023-09-19T13:21:26;6.43;;;5.85;;
3095;SDS011;1558;42.700;23.360;2023-09-19T13:23:56;6.90;;;6.13;;
3095;SDS011;1558;42.700;23.360;2023-09-19T13:26:47;7.03;;;6.43;;
3095;SDS011;1558;42.700;23.360;2023-09-19T13:29:17;7.78;;;6.38;;
3095;SDS011;1558;42.700;23.360;2023-09-19T13:31:46;10.55;;;7.18;;
3095;SDS011;1558;42.700;23.360;2023-09-19T13:34:15;7.82;;;6.95;;
3095;SDS011;1558;42.700;23.360;2023-09-19T13:36:45;7.13;;;6.43;;
3095;SDS011;1558;42.700;23.360;2023-09-19T13:39:15;6.57;;;6.00;;
3095;SDS011;1558;42.700;23.360;2023-09-19T13:41:44;9.43;;;6.38;;
3095;SDS011;1558;42.700;23.360;2023-09-19T13:44:13;7.25;;;6.65;;
3095;SDS011;1558;42.700;23.360;2023-09-19T13:46:44;10.23;;;6.57;;
3095;SDS011;1558;42.700;23.360;2023-09-19T13:49:13;7.15;;;6.50;;
3095;SDS011;1558;42.700;23.360;2023-09-19T13:51:42;7.20;;;6.50;;
3095;SDS011;1558;42.700;23.360;2023-09-19T13:54:11;7.28;;;6.53;;
3095;SDS011;1558;42.700;23.360;2023-09-19T13:56:41;7.10;;;6.50;;
3095;SDS011;1558;42.700;23.360;2023-09-19T13:59:09;7.22;;;6.63;;
3095;SDS011;1558;42.700;23.360;2023-09-19T14:01:37;7.25;;;6.55;;
3095;SDS011;1558;42.700;23.360;2023-09-19T14:04:08;7.40;;;6.65;;
3095;SDS011;1558;42.700;23.360;2023-09-19T14:06:37;6.93;;;6.40;;
3095;SDS011;1558;42.700;23.360;2023-09-19T14:09:09;7.43;;;6.60;;
3095;SDS011;1558;42.700;23.360;2023-09-19T14:11:38;7.75;;;6.95;;
3095;SDS011;1558;42.700;23.360;2023-09-19T14:14:06;6.95;;;6.30;;
3095;SDS011;1558;42.700;23.360;2023-09-19T14:16:34;7.22;;;6.30;;
3095;SDS011;1558;42.700;23.360;2023-09-19T14:19:03;9.77;;;7.30;;
3095;SDS011;1558;42.700;23.360;2023-09-19T14:21:33;10.60;;;7.57;;
3095;SDS011;1558;42.700;23.360;2023-09-19T14:24:03;7.80;;;7.10;;
3095;SDS011;1558;42.700;23.360;2023-09-19T14:26:33;13.10;;;7.93;;
3095;SDS011;1558;42.700;23.360;2023-09-19T14:29:01;11.75;;;10.55;;
3095;SDS011;1558;42.700;23.360;2023-09-19T14:31:29;7.30;;;6.57;;
3095;SDS011;1558;42.700;23.360;2023-09-19T14:33:58;7.63;;;6.97;;
3095;SDS011;1558;42.700;23.360;2023-09-19T14:36:26;11.05;;;7.03;;
3095;SDS011;1558;42.700;23.360;2023-09-19T14:38:56;12.15;;;10.93;;
3095;SDS011;1558;42.700;23.360;2023-09-19T14:41:24;13.63;;;10.55;;
3095;SDS011;1558;42.700;23.360;2023-09-19T14:43:53;7.22;;;6.50;;
3095;SDS011;1558;42.700;23.360;2023-09-19T14:46:22;11.30;;;8.35;;
3095;SDS011;1558;42.700;23.360;2023-09-19T14:48:51;7.32;;;6.63;;
3095;SDS011;1558;42.700;23.360;2023-09-19T14:51:19;7.70;;;7.00;;
3095;SDS011;1558;42.700;23.360;2023-09-19T14:53:48;9.18;;;8.27;;
3095;SDS011;1558;42.700;23.360;2023-09-19T14:56:18;9.23;;;7.25;;
3095;SDS011;1558;42.700;23.360;2023-09-19T14:58:46;6.68;;;6.07;;
3095;SDS011;1558;42.700;23.360;2023-09-19T15:01:14;7.15;;;6.40;;
3095;SDS011;1558;42.700;23.360;2023-09-19T15:03:43;6.65;;;6.10;;
3095;SDS011;1558;42.700;23.360;2023-09-19T15:06:13;7.82;;;7.00;;
3095;SDS011;1558;42.700;23.360;2023-09-19T15:08:43;7.80;;;7.00;;
3095;SDS011;1558;42.700;23.360;2023-09-19T15:11:14;6.88;;;6.20;;
3095;SDS011;1558;42.700;23.360;2023-09-19T15:13:46;7.88;;;7.13;;
3095;SDS011;1558;42.700;23.360;2023-09-19T15:16:15;8.15;;;7.35;;
3095;SDS011;1558;42.700;23.360;2023-09-19T15:18:44;7.45;;;6.85;;
3095;SDS011;1558;42.700;23.360;2023-09-19T15:21:14;7.97;;;7.18;;
3095;SDS011;1558;42.700;23.360;2023-09-19T15:23:43;7.95;;;7.35;;
3095;SDS011;1558;42.700;23.360;2023-09-19T15:26:12;7.75;;;7.00;;
3095;SDS011;1558;42.700;23.360;2023-09-19T15:28:45;8.38;;;7.57;;
3095;SDS011;1558;42.700;23.360;2023-09-19T15:31:14;8.32;;;6.95;;
3095;SDS011;1558;42.700;23.360;2023-09-19T15:33:42;8.35;;;7.50;;
3095;SDS011;1558;42.700;23.360;2023-09-19T15:36:11;8.68;;;7.10;;
3095;SDS011;1558;42.700;23.360;2023-09-19T15:38:56;9.88;;;7.50;;
3095;SDS011;1558;42.700;23.360;2023-09-19T15:41:27;7.88;;;7.15;;
3095;SDS011;1558;42.700;23.360;2023-09-19T15:43:58;10.13;;;7.00;;
3095;SDS011;1558;42.700;23.360;2023-09-19T15:46:30;8.10;;;7.30;;
3095;SDS011;1558;42.700;23.360;2023-09-19T15:49:01;8.95;;;7.50;;